Time;durP1;ratioP1;P1;durP2;ratioP2;P2;SDS_P1;SDS_P2;PMS_P1;PMS_P2;Temp;Humidity;BMP_temperature;BMP_pressure;BME280_temperature;BME280_humidity;BME280_pressure;Samples;Min_cycle;Max_cycle;Signal;HPM_P1;HPM_P2
2022/03/27 00:01:36;;;;;;;12.63;7.90;;;;;;;11.46;67.11;103058.91;5074901;28;20383;-61
2022/03/27 00:04:01;;;;;;;11.00;8.40;;;;;;;11.57;66.63;103065.63;5091483;28;20028;-62
2022/03/27 00:06:27;;;;;;;10.85;7.60;;;;;;;11.52;66.88;103053.38;5103060;28;20020;-61
2022/03/27 00:08:53;;;;;;;12.82;7.93;;;;;;;11.46;67.35;103058.91;5068287;28;20024;-62
2022/03/27 00:11:26;;;;;;;9.48;8.02;;;;;;;11.39;67.66;103060.03;5076427;28;20031;-61
2022/03/27 00:13:55;;;;;;;11.82;8.40;;;;;;;11.36;67.65;103066.31;5077922;28;20058;-63
2022/03/27 00:16:22;;;;;;;10.13;8.05;;;;;;;11.29;67.94;103067.41;5101502;28;20020;-61
2022/03/27 00:18:48;;;;;;;11.13;7.65;;;;;;;11.18;67.95;103067.75;5101544;28;20027;-62
2022/03/27 00:21:13;;;;;;;14.73;8.30;;;;;;;11.19;68.15;103072.16;5087164;28;20028;-62
2022/03/27 00:23:40;;;;;;;10.30;7.50;;;;;;;11.02;68.79;103054.00;5106201;28;20143;-61
2022/03/27 00:26:06;;;;;;;15.25;7.97;;;;;;;11.04;69.06;103070.81;5078601;28;20126;-61
2022/03/27 00:28:34;;;;;;;12.07;7.55;;;;;;;10.97;69.32;103066.59;5105300;28;20036;-62
2022/03/27 00:31:04;;;;;;;9.68;7.40;;;;;;;10.93;70.08;103064.06;5102675;28;20070;-62
2022/03/27 00:33:31;;;;;;;11.85;7.35;;;;;;;10.87;69.93;103060.63;5090256;28;20478;-61
2022/03/27 00:35:56;;;;;;;10.70;7.70;;;;;;;10.87;70.14;103063.31;5110722;28;20084;-61
2022/03/27 00:38:23;;;;;;;12.02;7.90;;;;;;;10.85;70.59;103061.59;5079451;28;20024;-61
2022/03/27 00:40:51;;;;;;;13.38;7.72;;;;;;;10.88;70.26;103056.19;5105311;28;20055;-61
2022/03/27 00:43:17;;;;;;;11.40;7.68;;;;;;;10.91;69.96;103058.75;5055382;28;20035;-61
2022/03/27 00:45:43;;;;;;;9.55;7.22;;;;;;;10.95;70.39;103062.22;5098103;28;20051;-61
2022/03/27 00:48:10;;;;;;;9.60;7.28;;;;;;;10.94;70.51;103060.47;5101789;28;20164;-61
2022/03/27 00:50:38;;;;;;;8.73;7.72;;;;;;;10.96;70.21;103059.50;5095615;28;20043;-61
2022/03/27 00:53:05;;;;;;;10.50;7.65;;;;;;;10.94;70.06;103056.00;5079057;28;20028;-62
2022/03/27 00:55:32;;;;;;;8.40;7.25;;;;;;;10.91;70.28;103054.34;5079037;28;20023;-62
2022/03/27 00:57:58;;;;;;;9.02;7.30;;;;;;;10.94;70.18;103058.66;5064033;28;20039;-62
2022/03/27 01:00:39;;;;;;;10.50;7.70;;;;;;;10.90;70.03;103057.88;5094012;28;20024;-61
2022/03/27 01:03:25;;;;;;;9.35;7.63;;;;;;;10.89;70.44;103058.81;5107860;28;20024;-61
2022/03/27 01:05:54;;;;;;;12.20;8.10;;;;;;;10.76;71.13;103048.56;5079925;28;20056;-61
2022/03/27 01:11:17;;;;;;;10.00;7.80;;;;;;;10.77;70.88;103043.19;5110500;28;20043;-61
2022/03/27 01:13:46;;;;;;;9.68;8.15;;;;;;;10.67;71.55;103042.56;5102626;28;20020;-62
2022/03/27 01:16:17;;;;;;;10.68;7.75;;;;;;;10.71;71.42;103043.38;5101809;28;20031;-62
2022/03/27 01:18:43;;;;;;;11.82;7.90;;;;;;;10.64;71.23;103049.78;5099516;28;20431;-62
2022/03/27 01:21:11;;;;;;;11.88;7.38;;;;;;;10.64;71.55;103047.09;5083578;28;20098;-62
2022/03/27 01:23:36;;;;;;;10.07;7.43;;;;;;;10.65;71.43;103048.88;5095053;28;20065;-62
2022/03/27 01:26:03;;;;;;;10.23;8.18;;;;;;;10.62;71.66;103051.63;5084517;28;20028;-61
2022/03/27 01:28:29;;;;;;;12.65;8.13;;;;;;;10.63;71.41;103045.38;5094503;28;20028;-61
2022/03/27 01:30:57;;;;;;;9.35;7.60;;;;;;;10.66;72.00;103054.13;5063491;28;20043;-62
2022/03/27 01:33:23;;;;;;;11.88;8.32;;;;;;;10.65;71.81;103056.88;5093095;28;20024;-62
2022/03/27 01:35:49;;;;;;;9.38;7.95;;;;;;;10.54;71.55;103048.28;5107006;28;20020;-61
2022/03/27 01:38:18;;;;;;;11.98;8.07;;;;;;;10.44;72.60;103056.53;5086004;28;20024;-62
2022/03/27 01:40:46;;;;;;;12.05;8.27;;;;;;;10.39;72.14;103049.59;5096540;28;20028;-61
2022/03/27 01:43:11;;;;;;;11.38;9.02;;;;;;;10.36;72.17;103049.66;5078328;28;20131;-62
2022/03/27 01:45:37;;;;;;;9.75;8.32;;;;;;;10.37;72.35;103056.72;5059747;28;20123;-62
2022/03/27 01:48:04;;;;;;;10.95;8.77;;;;;;;10.29;72.41;103050.72;5101975;28;20077;-61
2022/03/27 01:50:29;;;;;;;11.60;8.20;;;;;;;10.25;72.90;103052.56;5067398;28;20028;-62
2022/03/27 01:52:55;;;;;;;10.00;7.75;;;;;;;10.18;73.21;103046.53;5082659;28;20031;-61
2022/03/27 01:55:23;;;;;;;9.98;8.98;;;;;;;10.15;73.69;103049.28;5079256;28;20482;-61
2022/03/27 01:57:48;;;;;;;10.07;8.00;;;;;;;10.02;73.97;103048.69;5104611;28;20382;-62
2022/03/27 02:00:15;;;;;;;10.25;8.25;;;;;;;10.11;73.56;103044.94;5100178;28;20024;-61
2022/03/27 02:02:41;;;;;;;11.68;8.68;;;;;;;10.10;73.38;103042.34;5108186;28;20020;-61
2022/03/27 02:05:07;;;;;;;13.32;9.52;;;;;;;10.06;73.78;103044.22;5103692;28;20027;-61
2022/03/27 02:07:42;;;;;;;10.38;9.20;;;;;;;10.01;73.91;103043.44;5108120;28;20051;-61
2022/03/27 02:10:08;;;;;;;11.48;8.98;;;;;;;9.97;74.02;103045.31;5109742;28;20043;-61
2022/03/27 02:12:37;;;;;;;13.05;9.23;;;;;;;9.92;74.46;103041.88;5111708;28;20024;-61
2022/03/27 02:15:06;;;;;;;10.98;9.45;;;;;;;9.83;74.42;103031.50;5099466;28;20428;-62
2022/03/27 02:17:36;;;;;;;12.32;10.30;;;;;;;9.85;74.94;103047.38;5097871;28;20024;-61
2022/03/27 02:20:01;;;;;;;11.70;10.60;;;;;;;9.86;75.22;103047.34;5099454;28;20482;-61
2022/03/27 02:22:27;;;;;;;11.57;9.75;;;;;;;9.80;75.41;103042.19;5072893;28;20149;-61
2022/03/27 02:24:55;;;;;;;10.52;9.15;;;;;;;9.83;75.01;103044.78;5078078;28;20032;-61
2022/03/27 02:27:21;;;;;;;11.88;10.65;;;;;;;9.86;75.06;103041.19;5075820;28;20024;-61
2022/03/27 02:29:47;;;;;;;11.70;9.75;;;;;;;9.82;74.79;103036.81;5105575;28;20419;-61
2022/03/27 02:32:14;;;;;;;12.15;9.80;;;;;;;9.75;75.26;103041.44;5078728;28;20020;-62
2022/03/27 02:34:40;;;;;;;11.75;10.43;;;;;;;9.74;74.99;103039.69;5082682;28;20020;-61
2022/03/27 02:37:06;;;;;;;10.98;9.90;;;;;;;9.77;75.26;103040.47;5094579;28;20054;-61
2022/03/27 02:39:34;;;;;;;12.48;10.40;;;;;;;9.79;75.92;103037.78;5080765;28;20028;-61
2022/03/27 02:41:59;;;;;;;11.43;10.23;;;;;;;9.73;75.73;103043.25;5094043;28;20034;-61
2022/03/27 02:44:25;;;;;;;16.55;11.25;;;;;;;9.68;76.12;103032.75;5079325;28;20027;-61
2022/03/27 02:46:51;;;;;;;14.98;12.05;;;;;;;9.65;77.15;103039.91;5087918;28;20032;-61
2022/03/27 02:49:17;;;;;;;17.17;13.40;;;;;;;9.70;76.73;103038.88;5101809;28;20128;-61
2022/03/27 02:51:45;;;;;;;17.42;13.77;;;;;;;9.70;77.22;103036.22;5074716;28;20486;-61
2022/03/27 02:54:12;;;;;;;19.30;14.90;;;;;;;9.78;76.89;103031.59;5104877;28;20024;-61
2022/03/27 02:56:38;;;;;;;19.45;15.10;;;;;;;9.53;77.33;103004.75;5090903;28;20371;-62
2022/03/27 02:59:04;;;;;;;18.48;15.75;;;;;;;9.73;77.37;103029.94;5089814;28;20077;-61
2022/03/27 03:01:30;;;;;;;22.45;16.73;;;;;;;9.61;78.16;103032.91;5075779;28;20027;-61
2022/03/27 03:03:56;;;;;;;20.88;16.52;;;;;;;9.54;78.43;103027.75;5074721;28;20540;-61
2022/03/27 03:06:24;;;;;;;22.48;18.15;;;;;;;9.61;78.69;103035.56;5074172;28;20126;-61
2022/03/27 03:08:50;;;;;;;24.13;18.27;;;;;;;9.57;78.65;103034.78;5092861;28;20106;-61
2022/03/27 03:11:16;;;;;;;21.50;17.77;;;;;;;9.72;78.37;103036.19;5094398;28;20023;-62
2022/03/27 03:13:44;;;;;;;23.35;18.88;;;;;;;9.61;79.01;103032.91;5074976;28;20024;-61
2022/03/27 03:16:10;;;;;;;23.17;18.20;;;;;;;9.57;78.80;103026.81;5064073;28;20059;-61
2022/03/27 03:18:36;;;;;;;24.10;18.83;;;;;;;9.55;79.18;103032.13;5104920;28;20055;-62
2022/03/27 03:21:05;;;;;;;24.30;18.67;;;;;;;9.50;79.48;103034.06;5095549;28;20015;-61
2022/03/27 03:23:32;;;;;;;23.88;20.20;;;;;;;9.55;79.34;103026.81;5099595;28;20028;-61
2022/03/27 03:25:58;;;;;;;23.23;18.15;;;;;;;9.61;79.19;103032.91;5103515;28;20034;-61
2022/03/27 03:28:24;;;;;;;20.58;17.95;;;;;;;9.53;79.55;103023.34;5087736;28;20458;-62
2022/03/27 03:30:50;;;;;;;22.75;18.52;;;;;;;9.56;79.30;103019.75;5107898;28;20055;-61
2022/03/27 03:33:16;;;;;;;23.92;19.08;;;;;;;9.52;79.44;103023.38;5082167;28;20483;-61
2022/03/27 03:35:42;;;;;;;26.10;19.10;;;;;;;9.62;79.33;103026.69;5081384;28;20026;-62
2022/03/27 03:38:07;;;;;;;22.15;18.27;;;;;;;9.59;79.03;103019.69;5084765;28;20016;-61
2022/03/27 03:40:35;;;;;;;21.92;17.98;;;;;;;9.65;78.91;103022.19;5098977;28;20028;-61
2022/03/27 03:43:01;;;;;;;23.83;18.20;;;;;;;9.61;79.23;103012.53;5076346;28;20151;-61
2022/03/27 03:45:27;;;;;;;18.88;16.10;;;;;;;9.59;79.22;103018.78;5083519;28;20035;-62
2022/03/27 03:47:55;;;;;;;20.10;17.35;;;;;;;9.62;79.32;103022.25;5100510;28;20083;-61
2022/03/27 03:50:21;;;;;;;20.90;18.02;;;;;;;9.54;79.43;103014.47;5105333;28;20031;-61
2022/03/27 03:52:46;;;;;;;22.70;19.02;;;;;;;9.51;79.45;103011.00;5109288;28;20031;-61
2022/03/27 03:55:15;;;;;;;20.40;18.10;;;;;;;9.63;79.43;103023.13;5081293;28;20015;-61
2022/03/27 03:57:41;;;;;;;21.08;18.50;;;;;;;9.62;79.05;103024.03;5096287;28;20024;-61
2022/03/27 04:00:07;;;;;;;21.35;18.45;;;;;;;9.65;79.06;103024.84;5071871;28;20043;-61
2022/03/27 04:02:35;;;;;;;19.77;17.67;;;;;;;9.69;79.05;103033.59;5083045;28;20033;-61
2022/03/27 04:05:03;;;;;;;18.30;16.38;;;;;;;9.68;79.11;103027.44;5070563;28;20153;-60
2022/03/27 04:07:29;;;;;;;19.30;16.90;;;;;;;9.64;78.79;103027.53;5060620;28;20066;-61
2022/03/27 04:09:54;;;;;;;20.45;17.80;;;;;;;9.65;79.06;103030.16;5101626;28;20031;-61
2022/03/27 04:12:23;;;;;;;19.98;17.88;;;;;;;9.54;79.54;103030.41;5078890;28;20078;-61
2022/03/27 04:14:48;;;;;;;19.45;17.30;;;;;;;9.56;79.51;103027.72;5105389;28;20086;-61
2022/03/27 04:17:14;;;;;;;19.63;17.45;;;;;;;9.49;79.80;103032.28;5082783;28;20032;-61
2022/03/27 04:19:40;;;;;;;20.60;16.40;;;;;;;9.60;79.66;103036.50;5077448;28;20035;-61
2022/03/27 04:22:07;;;;;;;19.65;17.60;;;;;;;9.50;80.04;103020.78;5078970;28;20032;-61
2022/03/27 04:24:33;;;;;;;20.42;18.17;;;;;;;9.53;79.90;103022.50;5092813;28;20125;-61
2022/03/27 04:26:59;;;;;;;20.80;18.33;;;;;;;9.48;79.92;103025.25;5101646;28;20065;-61
2022/03/27 04:29:26;;;;;;;19.33;16.88;;;;;;;9.46;80.14;103016.41;5098917;28;20139;-61
2022/03/27 04:31:52;;;;;;;22.02;17.75;;;;;;;9.49;79.99;103019.00;5078217;28;20138;-61
2022/03/27 04:34:20;;;;;;;18.63;16.65;;;;;;;9.47;79.99;103015.53;5077910;28;20031;-61
2022/03/27 04:36:49;;;;;;;20.90;18.75;;;;;;;9.42;80.36;103020.06;5090866;28;20032;-61
2022/03/27 04:39:14;;;;;;;20.40;18.20;;;;;;;9.46;80.52;103021.72;5075862;28;20023;-61
2022/03/27 04:41:40;;;;;;;20.52;18.35;;;;;;;9.51;80.26;103021.63;5084153;28;20032;-61
2022/03/27 04:44:07;;;;;;;20.42;18.25;;;;;;;9.50;80.30;103023.44;5108510;28;20031;-61
2022/03/27 04:46:33;;;;;;;20.95;17.65;;;;;;;9.49;80.19;103020.78;5092871;28;20032;-61
2022/03/27 04:48:58;;;;;;;20.67;18.00;;;;;;;9.50;79.88;103023.44;5096023;28;20443;-61
2022/03/27 04:51:24;;;;;;;20.20;18.10;;;;;;;9.57;79.97;103024.16;5103263;28;20032;-61
2022/03/27 04:53:51;;;;;;;22.42;18.58;;;;;;;9.54;79.90;103026.88;5068023;28;20077;-61
2022/03/27 04:56:17;;;;;;;21.77;19.10;;;;;;;9.54;79.87;103027.75;5091163;28;20024;-61
2022/03/27 04:58:43;;;;;;;22.27;19.48;;;;;;;9.51;79.94;103026.94;5083710;28;20524;-61
2022/03/27 05:01:10;;;;;;;25.13;21.27;;;;;;;9.42;80.69;103025.38;5088368;28;20031;-61
2022/03/27 05:03:35;;;;;;;26.02;21.33;;;;;;;9.47;80.55;103035.88;5080172;28;20062;-61
2022/03/27 05:06:02;;;;;;;24.27;21.55;;;;;;;9.46;80.35;103027.03;5084945;28;20119;-61
2022/03/27 05:08:27;;;;;;;23.00;20.48;;;;;;;9.46;80.32;103031.50;5090603;28;20519;-61
2022/03/27 05:10:53;;;;;;;24.73;21.42;;;;;;;9.50;80.23;103031.41;5079844;28;20498;-61
2022/03/27 05:13:19;;;;;;;25.27;22.20;;;;;;;9.37;80.89;103042.31;5100999;28;20082;-61
2022/03/27 05:15:45;;;;;;;24.00;21.50;;;;;;;9.51;80.23;103041.09;5102282;28;20051;-61
2022/03/27 05:18:11;;;;;;;23.92;21.25;;;;;;;9.40;80.69;103037.81;5093070;28;20024;-61
2022/03/27 05:20:41;;;;;;;26.52;21.83;;;;;;;9.36;80.92;103041.47;5096258;28;20430;-61
2022/03/27 05:23:07;;;;;;;;;;;;;;;9.58;79.23;103051.59;5102960;28;20012;-61
2022/03/27 05:25:40;;;;;;;23.48;20.75;;;;;;;9.50;80.27;103043.78;5105727;28;19964;-61
2022/03/27 05:28:07;;;;;;;29.13;24.27;;;;;;;9.30;80.84;103047.78;5095826;28;20069;-61
2022/03/27 05:30:33;;;;;;;27.73;24.73;;;;;;;9.27;81.27;103052.28;5105849;28;20048;-61
2022/03/27 05:32:58;;;;;;;29.55;24.98;;;;;;;9.31;81.17;103046.00;5092210;28;20039;-62
2022/03/27 05:35:25;;;;;;;27.60;24.60;;;;;;;9.35;81.16;103046.78;5094936;28;20035;-60
2022/03/27 05:37:51;;;;;;;30.65;25.52;;;;;;;9.40;81.11;103044.91;5110432;28;20026;-61
2022/03/27 05:40:19;;;;;;;27.33;24.40;;;;;;;9.45;80.78;103051.00;5084924;28;20028;-61
2022/03/27 05:42:48;;;;;;;29.63;25.65;;;;;;;9.38;80.78;103050.25;5104554;28;20030;-61
2022/03/27 05:45:14;;;;;;;29.85;24.80;;;;;;;9.30;80.79;103041.59;5100136;28;20032;-61
2022/03/27 05:47:43;;;;;;;31.80;25.20;;;;;;;9.28;81.10;103051.38;5074559;28;20172;-61
2022/03/27 05:50:14;;;;;;;29.50;25.20;;;;;;;9.28;81.03;103052.25;5098117;28;20393;-61
2022/03/27 05:52:42;;;;;;;33.55;25.23;;;;;;;9.16;81.52;103059.59;5108447;28;20432;-60
2022/03/27 05:55:07;;;;;;;29.48;23.80;;;;;;;9.24;81.08;103049.69;5100222;28;20059;-61
2022/03/27 05:57:33;;;;;;;30.77;24.15;;;;;;;9.12;81.11;103053.50;5113733;28;20051;-61
2022/03/27 06:00:02;;;;;;;27.75;24.77;;;;;;;9.21;81.14;103049.78;5092609;28;20104;-62
2022/03/27 06:02:27;;;;;;;30.27;25.10;;;;;;;9.20;80.87;103058.63;5089534;28;20030;-61
2022/03/27 06:04:53;;;;;;;29.48;24.27;;;;;;;9.07;81.25;103071.28;5095907;28;20031;-61
2022/03/27 06:07:19;;;;;;;27.23;23.40;;;;;;;9.09;81.34;103074.81;5095437;28;20024;-61
2022/03/27 06:09:45;;;;;;;30.40;24.00;;;;;;;9.05;81.19;103070.44;5086667;28;20027;-62
2022/03/27 06:12:13;;;;;;;26.02;23.15;;;;;;;9.16;81.12;103072.88;5102350;28;20028;-61
2022/03/27 06:14:39;;;;;;;27.88;23.38;;;;;;;9.20;80.72;103080.72;5081349;28;20035;-61
2022/03/27 06:17:04;;;;;;;28.77;22.85;;;;;;;9.05;80.75;103079.28;5089825;28;20050;-61
2022/03/27 06:19:30;;;;;;;27.80;23.17;;;;;;;9.07;80.55;103081.91;5066425;28;20096;-61
2022/03/27 06:22:00;;;;;;;29.83;21.92;;;;;;;9.10;80.62;103080.06;5103590;28;20099;-61
2022/03/27 06:24:26;;;;;;;26.77;21.83;;;;;;;9.11;80.32;103078.28;5106145;28;20127;-61
2022/03/27 06:26:52;;;;;;;26.10;21.90;;;;;;;9.03;80.86;103082.88;5105373;28;21612;-61
2022/03/27 06:29:18;;;;;;;28.17;21.58;;;;;;;8.90;80.96;103081.38;5086711;28;20044;-61
2022/03/27 06:31:43;;;;;;;23.83;19.58;;;;;;;8.92;80.71;103087.53;5089629;28;20080;-61
2022/03/27 06:34:09;;;;;;;25.67;20.48;;;;;;;8.91;81.07;103085.78;5090771;28;20038;-61
2022/03/27 06:36:37;;;;;;;28.33;22.83;;;;;;;8.87;81.20;103090.28;5112492;28;20031;-61
2022/03/27 06:39:07;;;;;;;27.95;23.52;;;;;;;8.91;81.15;103091.06;5076660;28;20024;-61
2022/03/27 06:41:32;;;;;;;;;;;;;;;9.03;79.47;103089.06;5097554;28;20478;-61
2022/03/27 06:43:57;;;;;;;31.58;24.20;;;;;;;8.81;81.21;103085.97;5093000;28;19961;-61
2022/03/27 06:46:23;;;;;;;28.58;22.60;;;;;;;8.87;81.45;103090.28;5074664;28;20039;-61
2022/03/27 06:48:52;;;;;;;32.65;24.52;;;;;;;8.72;81.87;103091.44;5093025;28;20047;-61
2022/03/27 06:51:17;;;;;;;28.90;23.40;;;;;;;8.69;82.04;103080.03;5094777;28;20035;-61
2022/03/27 06:53:43;;;;;;;33.05;25.10;;;;;;;8.72;82.55;103085.28;5077082;28;20290;-61
2022/03/27 06:56:10;;;;;;;35.17;26.48;;;;;;;8.78;82.37;103090.47;5104641;28;20102;-61
2022/03/27 06:58:36;;;;;;;35.30;25.38;;;;;;;8.73;82.30;103094.97;5113373;28;20051;-61
2022/03/27 07:03:47;;;;;;;42.20;27.42;;;;;;;8.87;82.01;103090.28;5077751;28;20164;-61
2022/03/27 07:06:17;;;;;;;39.42;26.58;;;;;;;8.75;82.48;103095.81;5078274;28;20032;-61
2022/03/27 07:08:43;;;;;;;34.95;24.55;;;;;;;8.79;82.39;103090.41;5076877;28;20039;-61
2022/03/27 07:11:08;;;;;;;37.15;26.52;;;;;;;8.73;82.55;103092.31;5104092;28;20023;-61
2022/03/27 07:13:34;;;;;;;36.22;25.58;;;;;;;8.65;82.88;103092.47;5079294;28;20024;-61
2022/03/27 07:15:59;;;;;;;39.13;27.40;;;;;;;8.68;83.06;103094.19;5081451;28;20038;-61
2022/03/27 07:18:25;;;;;;;41.53;28.38;;;;;;;8.65;82.96;103100.44;5074144;28;20181;-61
2022/03/27 07:20:51;;;;;;;42.83;29.08;;;;;;;8.76;82.99;103094.91;5092707;28;20063;-61
2022/03/27 07:23:20;;;;;;;38.33;28.50;;;;;;;8.71;83.02;103099.44;5102214;28;20015;-61
2022/03/27 07:25:52;;;;;;;41.00;28.60;;;;;;;8.79;82.99;103094.84;5101926;28;20020;-61
2022/03/27 07:28:21;;;;;;;45.00;29.48;;;;;;;8.72;83.06;103083.50;5096704;28;20035;-61
2022/03/27 07:30:47;;;;;;;42.85;29.85;;;;;;;8.79;82.90;103090.41;5089669;28;20129;-61
2022/03/27 07:33:15;;;;;;;46.70;31.05;;;;;;;8.89;82.81;103090.25;5099386;28;20026;-61
2022/03/27 07:35:41;;;;;;;48.00;31.58;;;;;;;8.82;82.95;103100.09;5096233;28;20039;-61
2022/03/27 07:38:07;;;;;;;44.67;31.75;;;;;;;8.86;82.71;103100.03;5082489;28;20031;-61
2022/03/27 07:40:33;;;;;;;50.28;32.63;;;;;;;8.92;82.62;103091.06;5112080;28;20117;-61
2022/03/27 07:42:59;;;;;;;47.65;32.17;;;;;;;8.92;82.72;103100.81;5102564;28;20020;-61
2022/03/27 07:45:27;;;;;;;49.03;32.25;;;;;;;8.92;82.33;103092.84;5080425;28;20031;-61
2022/03/27 07:47:57;;;;;;;46.30;30.58;;;;;;;9.14;82.05;103095.94;5104664;28;21738;-61
2022/03/27 07:50:28;;;;;;;44.05;29.15;;;;;;;9.06;81.59;103096.09;5100033;28;20475;-61
2022/03/27 07:52:53;;;;;;;40.60;29.65;;;;;;;8.99;81.74;103100.63;5093031;28;20019;-62
2022/03/27 07:55:24;;;;;;;40.83;28.60;;;;;;;8.93;81.51;103095.47;5097500;28;20042;-61
2022/03/27 07:57:49;;;;;;;34.70;26.30;;;;;;;8.99;81.50;103100.63;5099509;28;20032;-61
2022/03/27 08:00:16;;;;;;;35.05;25.92;;;;;;;8.96;81.18;103100.69;5111725;28;20484;-61
2022/03/27 08:02:43;;;;;;;37.40;25.70;;;;;;;8.87;81.74;103093.78;5093287;28;20470;-61
2022/03/27 08:05:12;;;;;;;34.42;25.20;;;;;;;8.96;81.33;103098.03;5111629;28;20076;-61
2022/03/27 08:07:38;;;;;;;36.22;26.00;;;;;;;9.00;81.21;103089.13;5111150;28;20462;-62
2022/03/27 08:10:06;;;;;;;37.70;27.25;;;;;;;9.04;81.31;103092.59;5104623;28;20081;-61
2022/03/27 08:12:32;;;;;;;38.80;28.67;;;;;;;9.02;81.11;103091.75;5092865;28;20036;-61
2022/03/27 08:14:57;;;;;;;36.85;26.58;;;;;;;9.01;81.33;103087.34;5083030;28;20402;-61
2022/03/27 08:17:23;;;;;;;39.17;25.75;;;;;;;9.04;80.97;103092.59;5103216;28;20030;-61
2022/03/27 08:19:49;;;;;;;39.13;27.02;;;;;;;9.01;81.12;103087.34;5074904;28;20020;-61
2022/03/27 08:22:16;;;;;;;37.97;26.65;;;;;;;9.02;80.84;103086.44;5095995;28;20024;-61
2022/03/27 08:24:42;;;;;;;38.33;27.38;;;;;;;8.96;80.79;103090.09;5109785;28;20384;-61
2022/03/27 08:27:08;;;;;;;40.85;29.40;;;;;;;8.90;81.07;103087.56;5107096;28;20453;-61
2022/03/27 08:29:39;;;;;;;38.17;27.30;;;;;;;9.10;80.67;103092.47;5101269;28;20081;-61
2022/03/27 08:32:07;;;;;;;39.72;27.88;;;;;;;9.01;80.67;103095.31;5078433;28;20035;-61
2022/03/27 08:34:35;;;;;;;40.85;27.85;;;;;;;8.98;80.44;103098.91;5095097;28;20024;-61
2022/03/27 08:37:02;;;;;;;36.65;26.10;;;;;;;9.03;80.44;103097.03;5102717;28;20031;-61
2022/03/27 08:39:30;;;;;;;40.33;27.60;;;;;;;9.08;80.78;103099.59;5107872;28;20020;-60
2022/03/27 08:41:57;;;;;;;33.50;25.20;;;;;;;9.16;80.32;103104.75;5110547;28;20432;-60
2022/03/27 08:44:25;;;;;;;37.53;27.60;;;;;;;9.02;80.56;103095.25;5107782;28;20047;-60
2022/03/27 08:46:53;;;;;;;38.60;27.58;;;;;;;8.95;80.86;103101.63;5100217;28;20024;-60
2022/03/27 08:49:29;;;;;;;37.17;26.45;;;;;;;9.14;80.55;103110.06;5092970;28;20043;-61
2022/03/27 08:51:58;;;;;;;35.60;26.20;;;;;;;9.15;79.96;103101.22;5086271;28;20031;-60
2022/03/27 08:54:32;;;;;;;35.40;25.87;;;;;;;9.17;80.00;103098.50;5107622;28;20093;-60
2022/03/27 08:57:17;;;;;;;37.67;27.73;;;;;;;9.20;79.65;103099.31;5103504;28;20289;-60
2022/03/27 08:59:44;;;;;;;37.53;26.75;;;;;;;9.21;79.53;103100.22;5048358;28;20035;-61
2022/03/27 09:02:13;;;;;;;36.90;25.08;;;;;;;9.26;79.45;103106.28;5105658;28;20019;-60
2022/03/27 09:04:40;;;;;;;34.90;27.00;;;;;;;9.25;79.13;103102.75;5098206;28;20035;-60
2022/03/27 09:07:06;;;;;;;34.03;24.17;;;;;;;9.25;79.00;103107.19;5090246;28;20378;-60
2022/03/27 09:09:33;;;;;;;33.65;25.40;;;;;;;9.26;79.10;103104.50;5091164;28;20023;-60
2022/03/27 09:12:02;;;;;;;33.92;24.25;;;;;;;9.24;78.74;103121.41;5075113;28;20486;-61
2022/03/27 09:14:27;;;;;;;34.55;24.70;;;;;;;9.27;78.34;103114.22;5102031;28;20060;-60
2022/03/27 09:17:01;;;;;;;38.28;28.55;;;;;;;9.23;78.33;103114.31;5062630;28;20040;-60
2022/03/27 09:19:41;;;;;;;37.40;26.75;;;;;;;9.16;78.92;103112.72;5105953;28;20055;-60
2022/03/27 09:22:21;;;;;;;36.00;25.60;;;;;;;9.30;78.28;103122.13;5085663;28;20049;-60
2022/03/27 09:24:56;;;;;;;37.17;26.58;;;;;;;9.23;78.30;103115.19;5080413;28;20546;-60
2022/03/27 09:27:34;;;;;;;34.03;25.63;;;;;;;9.30;78.21;103123.91;5096282;28;20028;-61
2022/03/27 09:30:09;;;;;;;31.55;24.63;;;;;;;9.25;78.04;103121.34;5104004;28;20505;-61
2022/03/27 09:32:42;;;;;;;34.05;25.65;;;;;;;9.23;78.20;103128.47;5082140;28;20028;-61
2022/03/27 09:35:16;;;;;;;36.30;24.42;;;;;;;9.18;78.51;103122.41;5102256;28;20484;-61
2022/03/27 09:37:45;;;;;;;31.60;22.67;;;;;;;9.13;78.82;103118.94;5099495;28;20024;-60
2022/03/27 09:40:14;;;;;;;29.80;22.13;;;;;;;9.05;78.63;103110.25;5085787;28;20079;-61
2022/03/27 09:42:42;;;;;;;29.77;21.67;;;;;;;9.14;79.00;103118.03;5107221;28;20449;-60
2022/03/27 09:45:23;;;;;;;27.13;21.20;;;;;;;9.20;78.56;103111.72;5076125;28;20274;-61
2022/03/27 09:47:51;;;;;;;28.33;22.33;;;;;;;9.18;78.91;103116.22;5113005;28;20038;-61
2022/03/27 09:50:36;;;;;;;29.60;23.27;;;;;;;9.22;78.57;103112.56;5109840;28;20023;-61
2022/03/27 09:53:27;;;;;;;31.33;22.88;;;;;;;9.16;79.13;103108.28;5088367;28;20399;-61
2022/03/27 09:55:57;;;;;;;29.80;22.92;;;;;;;9.28;79.11;103104.47;5114538;28;20374;-61
2022/03/27 09:58:35;;;;;;;29.77;22.92;;;;;;;9.27;78.50;103098.31;5096470;28;20027;-61
2022/03/27 10:01:24;;;;;;;30.15;23.05;;;;;;;9.19;78.63;103084.31;5101618;28;20117;-61
2022/03/27 10:04:04;;;;;;;32.40;23.63;;;;;;;9.38;78.50;103094.53;5110058;28;20041;-61
2022/03/27 10:06:37;;;;;;;31.60;23.98;;;;;;;9.44;78.38;103082.00;5106958;28;20078;-61
2022/03/27 10:09:08;;;;;;;34.28;25.13;;;;;;;9.50;78.70;103079.22;5103130;28;20024;-60
2022/03/27 10:11:35;;;;;;;31.35;23.60;;;;;;;9.63;77.79;103076.25;5104597;28;20032;-61
2022/03/27 10:14:03;;;;;;;34.53;23.70;;;;;;;9.63;77.98;103078.91;5099021;28;20028;-61
2022/03/27 10:16:33;;;;;;;34.13;23.80;;;;;;;9.55;77.83;103074.63;5104183;28;20020;-61
2022/03/27 10:19:29;;;;;;;38.05;23.15;;;;;;;9.74;77.77;103077.75;5102512;28;20030;-61
2022/03/27 10:21:55;;;;;;;33.22;25.25;;;;;;;9.56;77.54;103078.19;5108116;28;20023;-61
2022/03/27 10:24:24;;;;;;;31.08;24.42;;;;;;;9.62;77.54;103069.19;5104019;28;20076;-61
2022/03/27 10:26:50;;;;;;;30.58;24.20;;;;;;;9.85;77.58;103072.16;5085857;28;20366;-61
2022/03/27 10:29:16;;;;;;;32.05;23.88;;;;;;;9.91;76.83;103065.84;5113927;28;20066;-61
2022/03/27 10:31:42;;;;;;;35.42;24.65;;;;;;;9.93;77.58;103070.19;5096107;28;20487;-61
2022/03/27 10:34:13;;;;;;;32.60;24.40;;;;;;;10.00;77.00;103055.00;5061210;28;20052;-61
2022/03/27 10:36:55;;;;;;;27.45;22.52;;;;;;;10.18;75.72;103061.63;5092452;28;20453;-61
2022/03/27 10:39:40;;;;;;;33.50;22.55;;;;;;;10.41;75.36;103071.69;5081762;28;20052;-61
2022/03/27 10:42:26;;;;;;;30.85;23.45;;;;;;;10.48;75.26;103072.41;5088753;28;20124;-61
2022/03/27 10:45:16;;;;;;;30.55;23.02;;;;;;;10.74;74.02;103061.06;5080077;28;20030;-61
2022/03/27 10:47:44;;;;;;;30.20;22.83;;;;;;;10.75;73.15;103061.00;5113120;28;20034;-61
2022/03/27 10:50:10;;;;;;;29.67;23.23;;;;;;;10.91;72.55;103058.75;5063830;28;20024;-61
2022/03/27 10:52:58;;;;;;;31.75;22.85;;;;;;;11.31;72.44;103045.13;5094859;28;20097;-61
2022/03/27 10:55:36;;;;;;;29.67;22.80;;;;;;;11.57;70.92;103051.44;5108169;28;20541;-61
2022/03/27 10:58:33;;;;;;;27.00;22.15;;;;;;;11.88;70.88;103053.13;5092758;28;20154;-61
2022/03/27 11:01:02;;;;;;;26.95;21.80;;;;;;;12.15;68.71;103054.03;5093689;28;20048;-61
2022/03/27 11:03:45;;;;;;;26.88;22.50;;;;;;;12.43;67.98;103040.59;5093379;28;20482;-61
2022/03/27 11:06:20;;;;;;;26.25;21.08;;;;;;;12.67;66.57;103045.03;5101893;28;20028;-61
2022/03/27 11:08:47;;;;;;;27.02;20.45;;;;;;;12.98;64.81;103040.38;5108109;28;20046;-61
2022/03/27 11:11:38;;;;;;;28.63;20.83;;;;;;;13.54;65.23;103039.97;5073109;28;20150;-61
2022/03/27 11:14:10;;;;;;;25.88;20.88;;;;;;;14.08;61.94;103044.81;5101826;28;20036;-61
2022/03/27 11:17:07;;;;;;;29.20;21.90;;;;;;;14.44;62.62;103045.97;5092284;28;20122;-61
2022/03/27 11:19:51;;;;;;;24.33;20.67;;;;;;;15.28;58.49;103033.22;5067777;28;20031;-61
2022/03/27 11:22:41;;;;;;;26.02;19.52;;;;;;;15.87;58.32;103022.25;5052436;28;20094;-61
2022/03/27 11:25:34;;;;;;;22.95;19.13;;;;;;;16.11;56.72;103028.19;5068799;28;20458;-61
2022/03/27 11:28:03;;;;;;;22.77;19.70;;;;;;;16.31;54.95;103031.66;5071068;28;20443;-61
2022/03/27 11:30:33;;;;;;;23.10;19.58;;;;;;;16.89;52.68;103017.81;5069977;28;20072;-61